Strona główna
METAR-TAF:

METAR-TAF

Lotnisko :

Baza lotnicza

Meppen, Niemcy

Szerokość geograficzna: 52-43-24N, Długość geograficzna: 007-19-35E, wysokość: 21 m

Aktualna obserwacja pogody

Raport powstał 49 minut temu, godzina 18:20 UTC
Wiatr 4 kt od zachodnio-północny zachód
Temperatura 20°C
Wilgotność 49%
Ciśnienie 1022 hPa
Widzialność 10 km lub więcej

METAR: ETWM 211820Z AUTO 30004KT 9999 // ////// 20/09 Q1022 ///

czas: 21:09 (19:09 UTC)


TAF: brakujący

Obserwacja i prognoza pogody dla ponad 4000 lotnisk (raport METAR i TAF).

Dostępne stacje oznaczono żółtymi i czerwonymi punktami na mapie.

Najedź kursorem aby zobaczyć nazwę stacji.

Kliknij aby zobaczyć obserwacje i prognozy pogody.

Aby zmienić mapę: kliknij na zielony przycisk z czarnym krzyżykiem, aby powiększyć; na zielony przycisk z myślnikiem, aby pomniejszyć; na zielone strzałki, aby przejść do map sąsiednich.


METAR-TAF: